Terminal Aerodrome Forecast
Issued by NWS

Home | Current Version | Previous Version | Text Only | Print | Product List | Glossary On
Versions: 1 2 3 4 5 6 7 8 9 10 11 12 13 14 15 16 17 18 19 20 21 22 23 24 25 26 27 28 29 30
000
FTUS45 KPSR 260000 AAB
TAFPHX
TAF AMD
KPHX 260011Z 2600/2624 24010KT P6SM VCTS SCT080CB BKN250
     FM260045 14015G25KT 1/4SM BLDU BKN080 OVC250
     FM260230 14015KT 6SM HZ VCTS BKN080CB BKN120 OVC250
     FM260700 14010KT P6SM SCT080 BKN250
     FM261100 14011KT P6SM BKN120 BKN250
     FM262300 27007KT P6SM SCT120 SCT250=

USA.gov is the U.S. government's official web portal to all federal, state and local government web resources and services.